createdAt,value
2022-09-01T00:00:51.581Z,82.22
2022-09-01T00:03:23.914Z,82.10
2022-09-01T00:05:57.325Z,82.59
2022-09-01T00:08:30.430Z,82.50
2022-09-01T00:11:00.678Z,82.75
2022-09-01T00:13:33.433Z,82.71
2022-09-01T00:16:04.656Z,82.79
2022-09-01T00:18:36.236Z,82.74
2022-09-01T00:21:07.013Z,82.60
2022-09-01T00:23:40.365Z,82.72
2022-09-01T00:26:10.777Z,83.17
2022-09-01T00:28:42.056Z,83.88
2022-09-01T00:31:15.193Z,83.56
2022-09-01T00:33:46.041Z,83.65
2022-09-01T00:36:16.005Z,84.41
2022-09-01T00:38:49.196Z,84.33
2022-09-01T00:41:21.969Z,84.55
2022-09-01T00:43:56.001Z,84.84
2022-09-01T00:46:30.561Z,85.06
2022-09-01T00:49:08.695Z,85.47
2022-09-01T00:51:41.776Z,85.29
2022-09-01T00:54:21.175Z,85.59
2022-09-01T00:56:57.783Z,86.11
2022-09-01T00:59:30.944Z,85.54
2022-09-01T01:02:01.452Z,85.64
2022-09-01T01:04:32.272Z,86.03
2022-09-01T01:07:04.555Z,86.54
2022-09-01T01:09:45.532Z,86.19
2022-09-01T01:12:18.804Z,86.30
2022-09-01T01:14:52.682Z,86.64
2022-09-01T01:17:25.438Z,87.20
2022-09-01T01:20:11.694Z,87.15
2022-09-01T01:23:10.189Z,86.87
2022-09-01T01:25:47.949Z,87.63
2022-09-01T01:28:22.427Z,87.50
2022-09-01T01:31:01.868Z,87.32
2022-09-01T01:33:39.286Z,87.24
2022-09-01T01:36:16.562Z,86.30
2022-09-01T01:38:52.564Z,86.35
2022-09-01T01:41:26.294Z,86.11
2022-09-01T01:43:57.254Z,86.17
2022-09-01T01:46:28.965Z,85.98
2022-09-01T01:49:01.447Z,85.93
2022-09-01T01:51:33.118Z,85.59
2022-09-01T01:54:06.194Z,86.73
2022-09-01T01:56:41.984Z,86.82
2022-09-01T01:59:16.806Z,86.65
2022-09-01T02:01:51.476Z,86.49
2022-09-01T02:04:23.631Z,86.67
2022-09-01T02:06:56.072Z,86.75
2022-09-01T02:09:27.850Z,86.88
2022-09-01T02:12:00.625Z,86.67
2022-09-01T02:14:34.086Z,87.32
2022-09-01T02:17:07.426Z,87.59
2022-09-01T02:19:43.489Z,87.79
2022-09-01T02:22:14.047Z,87.25
2022-09-01T02:24:46.656Z,86.72
2022-09-01T02:27:26.009Z,86.92
2022-09-01T02:29:58.884Z,87.67
2022-09-01T02:32:29.483Z,87.59
2022-09-01T02:35:01.390Z,87.58
2022-09-01T02:37:31.584Z,87.23
2022-09-01T02:40:02.274Z,87.09
2022-09-01T02:42:35.067Z,87.07
2022-09-01T02:45:16.311Z,87.27
2022-09-01T02:47:48.653Z,87.58
2022-09-01T02:50:22.642Z,87.26
2022-09-01T02:52:53.180Z,87.70
2022-09-01T02:55:25.335Z,87.61
2022-09-01T02:57:58.518Z,87.95
2022-09-01T03:00:33.603Z,87.79
2022-09-01T03:03:05.932Z,88.15
2022-09-01T03:05:39.367Z,88.28
2022-09-01T03:08:14.849Z,88.29
2022-09-01T03:10:48.058Z,88.43
2022-09-01T03:13:25.330Z,88.58
2022-09-01T03:15:55.754Z,88.50
2022-09-01T03:18:26.243Z,88.34
2022-09-01T03:20:56.576Z,88.50
2022-09-01T03:23:28.278Z,88.96
2022-09-01T03:25:59.160Z,88.79
2022-09-01T03:28:32.150Z,89.11
2022-09-01T03:31:02.911Z,88.98
2022-09-01T03:33:34.483Z,89.09
2022-09-01T03:36:05.035Z,89.23
2022-09-01T03:38:48.907Z,89.01
2022-09-01T03:41:25.267Z,89.50
2022-09-01T03:44:00.624Z,89.53
2022-09-01T03:46:36.824Z,89.75
2022-09-01T03:49:13.419Z,89.31
2022-09-01T03:51:45.189Z,89.19
2022-09-01T03:54:17.876Z,89.81
2022-09-01T03:56:48.162Z,89.68
2022-09-01T03:59:25.631Z,89.55
2022-09-01T04:01:56.938Z,88.92
2022-09-01T04:04:27.422Z,89.07
2022-09-01T04:06:57.641Z,89.18
2022-09-01T04:09:28.019Z,89.17
2022-09-01T04:11:58.214Z,89.12
2022-09-01T04:14:31.168Z,89.21
2022-09-01T04:17:13.805Z,89.37
2022-09-01T04:19:44.012Z,89.11
2022-09-01T04:22:17.756Z,88.14
2022-09-01T04:24:48.486Z,87.91
2022-09-01T04:27:23.234Z,88.20
2022-09-01T04:29:57.938Z,88.22
2022-09-01T04:32:31.008Z,88.43
2022-09-01T04:35:04.213Z,89.28
2022-09-01T04:37:36.589Z,89.02
2022-09-01T04:40:08.847Z,88.98
2022-09-01T04:42:40.083Z,88.35
2022-09-01T04:45:20.434Z,88.47
2022-09-01T04:47:52.364Z,89.19
2022-09-01T04:50:23.804Z,89.36
2022-09-01T04:53:20.443Z,89.27
2022-09-01T04:55:53.878Z,89.29
2022-09-01T04:58:25.744Z,89.70
2022-09-01T05:01:00.443Z,89.33
2022-09-01T05:03:32.255Z,87.90
2022-09-01T05:06:08.900Z,87.94
2022-09-01T05:08:40.277Z,87.56
2022-09-01T05:11:21.175Z,87.30
2022-09-01T05:13:56.146Z,86.94
2022-09-01T05:16:29.143Z,87.17
2022-09-01T05:19:01.677Z,86.85
2022-09-01T05:21:36.709Z,86.93
2022-09-01T05:24:10.873Z,87.11
2022-09-01T05:26:42.993Z,87.16
2022-09-01T05:29:17.619Z,87.31
2022-09-01T05:31:55.012Z,87.16
2022-09-01T05:34:29.893Z,87.26
2022-09-01T05:37:02.386Z,87.20
2022-09-01T05:39:32.947Z,87.03
2022-09-01T05:42:04.801Z,87.28
2022-09-01T05:44:36.132Z,86.59
2022-09-01T05:47:19.127Z,86.30
2022-09-01T05:49:53.804Z,85.47
2022-09-01T05:52:26.401Z,85.58
2022-09-01T05:55:00.253Z,85.17
2022-09-01T05:57:35.577Z,85.41
2022-09-01T06:00:14.094Z,84.61
2022-09-01T06:02:47.334Z,84.23
2022-09-01T06:05:22.239Z,84.14
2022-09-01T06:07:57.377Z,84.03
2022-09-01T06:10:29.766Z,84.35
2022-09-01T06:13:02.729Z,83.28
2022-09-01T06:15:33.943Z,83.08
2022-09-01T06:18:07.119Z,82.29
2022-09-01T06:20:43.713Z,82.75
2022-09-01T06:23:15.535Z,82.18
2022-09-01T06:25:48.064Z,81.28
2022-09-01T06:28:23.949Z,80.15
2022-09-01T06:30:57.365Z,78.56
2022-09-01T06:33:31.137Z,76.96
2022-09-01T06:36:05.786Z,75.42
2022-09-01T06:38:36.289Z,75.11
2022-09-01T06:41:13.111Z,73.98
2022-09-01T06:43:44.773Z,72.83
2022-09-01T06:46:15.223Z,72.27
2022-09-01T06:48:49.165Z,71.33
2022-09-01T06:51:23.107Z,71.02
2022-09-01T06:53:59.564Z,68.59
2022-09-01T06:56:42.806Z,67.90
2022-09-01T06:59:29.191Z,66.41
2022-09-01T07:02:06.809Z,65.39
2022-09-01T07:05:06.103Z,64.20
2022-09-01T07:14:15.308Z,62.72
2022-09-01T07:16:52.442Z,60.50
2022-09-01T07:19:48.243Z,61.43
2022-09-01T07:25:11.815Z,61.37
2022-09-01T07:27:52.856Z,59.29
2022-09-01T07:30:27.255Z,59.13
2022-09-01T07:33:41.533Z,56.45
2022-09-01T07:39:48.599Z,55.58
2022-09-01T07:44:45.134Z,53.52
2022-09-01T07:47:55.890Z,52.35
2022-09-01T07:50:40.988Z,51.53
2022-09-01T07:53:12.846Z,51.42
2022-09-01T07:55:46.714Z,49.02
2022-09-01T07:58:17.526Z,48.71
2022-09-01T08:00:50.233Z,45.97
2022-09-01T08:03:25.391Z,45.95
2022-09-01T08:06:00.934Z,45.41
2022-09-01T08:08:31.338Z,44.57
2022-09-01T08:11:05.352Z,44.80
2022-09-01T08:13:41.620Z,43.33
2022-09-01T08:16:17.984Z,41.30
2022-09-01T08:18:50.921Z,38.12
2022-09-01T08:21:34.202Z,36.59
2022-09-01T08:24:22.329Z,35.60
2022-09-01T08:26:55.233Z,34.50
2022-09-01T08:29:25.532Z,33.14
2022-09-01T08:31:58.642Z,33.07
2022-09-01T08:34:29.293Z,33.35
2022-09-01T08:36:59.654Z,32.13
2022-09-01T08:39:30.721Z,31.31
2022-09-01T08:42:15.229Z,30.21
2022-09-01T08:44:55.883Z,29.73
2022-09-01T08:47:39.331Z,29.35
2022-09-01T08:50:15.834Z,27.83
2022-09-01T08:53:26.558Z,27.98
2022-09-01T08:56:00.745Z,28.11
2022-09-01T08:58:35.138Z,26.99
2022-09-01T09:01:33.166Z,26.23
2022-09-01T09:04:26.463Z,26.33
2022-09-01T09:07:05.837Z,26.65
2022-09-01T09:09:49.328Z,27.69
2022-09-01T09:12:52.997Z,26.09
2022-09-01T09:15:37.504Z,27.11
2022-09-01T09:18:39.185Z,26.61
2022-09-01T09:21:19.390Z,26.90
2022-09-01T09:23:56.552Z,27.50
2022-09-01T09:26:42.072Z,26.92
2022-09-01T09:29:12.698Z,24.66
2022-09-01T09:31:50.485Z,25.31
2022-09-01T09:34:36.197Z,26.08
2022-09-01T09:37:27.409Z,27.28
2022-09-01T09:40:11.089Z,28.56
2022-09-01T09:42:42.484Z,30.71
2022-09-01T09:45:29.748Z,32.21
2022-09-01T09:48:03.816Z,33.94
2022-09-01T09:50:38.283Z,34.76
2022-09-01T09:53:21.879Z,34.95
2022-09-01T09:56:01.429Z,35.54
2022-09-01T09:58:39.608Z,36.36
2022-09-01T10:01:17.710Z,36.88
2022-09-01T10:03:54.092Z,36.51
2022-09-01T10:06:36.094Z,37.20
2022-09-01T10:09:11.440Z,37.54
2022-09-01T10:11:45.249Z,38.55
2022-09-01T10:14:35.839Z,39.30
2022-09-01T10:17:17.619Z,39.63
2022-09-01T10:19:57.555Z,38.64
2022-09-01T10:22:29.122Z,39.47
2022-09-01T10:25:00.739Z,38.41
2022-09-01T10:27:35.923Z,38.72
2022-09-01T10:30:18.367Z,39.10
2022-09-01T10:32:55.924Z,38.22
2022-09-01T10:35:34.123Z,37.57
2022-09-01T10:38:11.912Z,36.87
2022-09-01T10:40:50.021Z,34.89
2022-09-01T10:43:38.297Z,35.12
2022-09-01T10:46:50.583Z,34.74
2022-09-01T10:49:53.272Z,35.85
2022-09-01T10:52:59.878Z,36.29
2022-09-01T10:55:40.056Z,37.26
2022-09-01T11:02:28.138Z,35.38
2022-09-01T11:05:19.449Z,35.49
2022-09-01T11:08:15.200Z,35.57
2022-09-01T11:10:58.558Z,35.43
2022-09-01T11:13:49.977Z,35.46
2022-09-01T11:16:52.383Z,36.00
2022-09-01T11:19:44.518Z,33.65
2022-09-01T11:22:34.979Z,34.38
2022-09-01T11:25:43.966Z,34.07
2022-09-01T11:28:41.949Z,34.89
2022-09-01T11:31:26.464Z,34.64
2022-09-01T11:34:06.999Z,33.59
2022-09-01T11:36:40.842Z,34.07
2022-09-01T11:39:36.069Z,34.97
2022-09-01T11:42:14.816Z,33.24
2022-09-01T11:44:55.713Z,32.25
2022-09-01T11:47:31.032Z,32.01
2022-09-01T11:50:05.006Z,32.40
2022-09-01T11:52:41.623Z,32.85
2022-09-01T11:55:13.655Z,33.89
2022-09-01T11:57:44.012Z,34.22
2022-09-01T12:00:29.067Z,33.77
2022-09-01T12:03:00.302Z,33.92
2022-09-01T12:05:36.060Z,34.51
2022-09-01T12:08:17.793Z,33.53
2022-09-01T12:10:49.099Z,33.08
2022-09-01T12:13:24.236Z,32.90
2022-09-01T12:16:17.554Z,32.34
2022-09-01T12:18:52.188Z,32.87
2022-09-01T12:21:26.238Z,33.71
2022-09-01T12:23:57.631Z,33.81
2022-09-01T12:26:30.965Z,32.79
2022-09-01T12:29:01.620Z,32.68
2022-09-01T12:31:34.886Z,32.85
2022-09-01T12:34:05.344Z,31.90
2022-09-01T12:36:38.884Z,31.21
2022-09-01T12:39:26.150Z,30.52
2022-09-01T12:42:09.122Z,30.10
2022-09-01T12:44:51.129Z,29.90
2022-09-01T12:47:53.678Z,31.12
2022-09-01T12:50:50.943Z,29.01
2022-09-01T12:53:30.619Z,28.96
2022-09-01T12:56:24.584Z,25.55
2022-09-01T12:59:15.476Z,22.67
2022-09-01T13:01:47.716Z,20.88
2022-09-01T13:04:31.727Z,21.27
2022-09-01T13:07:09.229Z,18.33
2022-09-01T13:09:39.603Z,17.67
2022-09-01T13:12:16.898Z,17.34
2022-09-01T13:14:47.223Z,17.63
2022-09-01T13:17:17.844Z,16.03
2022-09-01T13:19:50.636Z,16.33
2022-09-01T13:22:20.811Z,17.11
2022-09-01T13:24:50.941Z,17.32
2022-09-01T13:27:22.337Z,18.28
2022-09-01T13:29:53.433Z,17.04
2022-09-01T13:32:25.661Z,17.41
2022-09-01T13:34:59.907Z,17.99
2022-09-01T13:37:30.391Z,18.24
2022-09-01T13:40:01.703Z,18.99
2022-09-01T13:42:33.332Z,19.99
2022-09-01T13:45:07.378Z,19.09
2022-09-01T13:48:15.336Z,17.76
2022-09-01T13:51:14.132Z,17.75
2022-09-01T13:53:21.340Z,16.66
2022-09-01T13:55:52.080Z,16.75
2022-09-01T13:58:22.248Z,17.29
2022-09-01T14:00:52.879Z,17.29
2022-09-01T14:03:26.270Z,17.68
2022-09-01T14:05:59.982Z,17.45
2022-09-01T14:08:31.491Z,16.82
2022-09-01T14:11:01.687Z,16.76
2022-09-01T14:13:32.582Z,15.75
2022-09-01T14:16:03.153Z,15.26
2022-09-01T14:18:36.926Z,14.75
2022-09-01T14:21:15.610Z,14.40
2022-09-01T14:23:46.609Z,15.16
2022-09-01T14:26:19.133Z,15.38
2022-09-01T14:28:50.519Z,16.52
2022-09-01T14:31:21.791Z,15.47
2022-09-01T14:33:52.438Z,15.97
2022-09-01T14:36:29.257Z,16.41
2022-09-01T14:38:59.626Z,16.46
2022-09-01T14:41:29.869Z,15.55
2022-09-01T14:44:03.393Z,15.44
2022-09-01T14:46:34.731Z,15.44
2022-09-01T14:49:07.239Z,15.32
2022-09-01T14:54:30.259Z,15.98
2022-09-01T14:59:51.280Z,16.64
2022-09-01T15:02:25.392Z,16.51
2022-09-01T15:04:55.576Z,17.12
2022-09-01T15:07:28.387Z,18.58
2022-09-01T15:09:59.052Z,21.37
2022-09-01T15:12:31.065Z,22.43
2022-09-01T15:15:01.726Z,23.99
2022-09-01T15:17:32.295Z,24.57
2022-09-01T15:20:24.084Z,25.17
2022-09-01T15:22:57.315Z,26.39
2022-09-01T15:25:28.657Z,26.90
2022-09-01T15:27:58.910Z,27.22
2022-09-01T15:30:29.167Z,28.67
2022-09-01T15:32:59.373Z,29.30
2022-09-01T15:35:31.700Z,30.54
2022-09-01T15:38:05.179Z,30.71
2022-09-01T15:40:36.233Z,31.55
2022-09-01T15:43:08.998Z,31.44
2022-09-01T15:45:39.290Z,31.68
2022-09-01T15:48:09.228Z,30.78
2022-09-01T15:50:39.440Z,31.32
2022-09-01T15:53:13.467Z,31.32
2022-09-01T15:55:46.932Z,30.93
2022-09-01T15:58:24.733Z,31.23
2022-09-01T16:01:00.888Z,31.69
2022-09-01T16:03:32.209Z,32.44
2022-09-01T16:06:03.343Z,31.78
2022-09-01T16:08:37.038Z,32.51
2022-09-01T16:11:12.296Z,32.01
2022-09-01T16:13:44.116Z,32.67
2022-09-01T16:16:40.501Z,32.15
2022-09-01T16:19:27.499Z,33.43
2022-09-01T16:22:08.787Z,34.15
2022-09-01T16:24:46.437Z,33.91
2022-09-01T16:27:21.263Z,34.63
2022-09-01T16:29:55.011Z,35.24
2022-09-01T16:32:27.241Z,35.09
2022-09-01T16:34:57.586Z,35.55
2022-09-01T16:37:42.878Z,36.41
2022-09-01T16:40:32.737Z,36.95
2022-09-01T16:43:12.576Z,37.61
2022-09-01T16:45:54.621Z,38.43
2022-09-01T16:48:34.113Z,39.56
2022-09-01T16:51:16.872Z,39.81
2022-09-01T16:54:01.661Z,40.03
2022-09-01T16:56:41.978Z,40.61
2022-09-01T16:59:27.282Z,40.91
2022-09-01T17:02:11.628Z,41.18
2022-09-01T17:04:45.876Z,41.05
2022-09-01T17:07:19.164Z,40.86
2022-09-01T17:10:01.846Z,41.54
2022-09-01T17:12:43.512Z,41.39
2022-09-01T17:15:18.254Z,41.14
2022-09-01T17:17:55.940Z,40.96
2022-09-01T17:20:31.508Z,40.61
2022-09-01T17:23:08.813Z,41.55
2022-09-01T17:25:44.982Z,40.17
2022-09-01T17:28:27.492Z,40.63
2022-09-01T17:31:14.431Z,41.05
2022-09-01T17:34:06.424Z,41.20
2022-09-01T17:36:51.729Z,41.05
2022-09-01T17:39:38.093Z,41.51
2022-09-01T17:42:18.498Z,41.84
2022-09-01T17:44:58.213Z,41.94
2022-09-01T17:47:39.890Z,42.40
2022-09-01T17:50:19.127Z,42.50
2022-09-01T17:53:10.328Z,42.84
2022-09-01T17:55:52.912Z,43.34
2022-09-01T17:58:40.835Z,44.15
2022-09-01T18:01:22.184Z,44.17
2022-09-01T18:04:38.774Z,44.55
2022-09-01T18:07:24.084Z,45.77
2022-09-01T18:09:59.544Z,45.54
2022-09-01T18:12:35.344Z,45.77
2022-09-01T18:15:14.326Z,45.55
2022-09-01T18:17:52.500Z,46.52
2022-09-01T18:20:28.308Z,45.83
2022-09-01T18:23:07.811Z,46.19
2022-09-01T18:25:43.689Z,46.34
2022-09-01T18:28:14.102Z,46.66
2022-09-01T18:30:53.268Z,48.24
2022-09-01T18:33:33.363Z,49.02
2022-09-01T18:36:23.511Z,48.87
2022-09-01T18:39:00.246Z,49.18
2022-09-01T18:41:46.655Z,49.25
2022-09-01T18:44:39.812Z,49.61
2022-09-01T18:47:14.438Z,49.82
2022-09-01T18:49:59.492Z,50.14
2022-09-01T18:52:56.262Z,50.80
2022-09-01T18:55:36.246Z,50.85
2022-09-01T18:58:12.068Z,51.78
2022-09-01T19:00:52.206Z,51.96
2022-09-01T19:03:31.718Z,52.68
2022-09-01T19:06:27.278Z,52.51
2022-09-01T19:09:19.714Z,53.46
2022-09-01T19:12:05.792Z,53.69
2022-09-01T19:14:45.831Z,53.97
2022-09-01T19:17:39.303Z,53.71
2022-09-01T19:20:15.031Z,53.65
2022-09-01T19:22:55.093Z,53.75
2022-09-01T19:25:41.827Z,53.49
2022-09-01T19:28:24.607Z,53.92
2022-09-01T19:31:07.124Z,54.02
2022-09-01T19:33:44.992Z,54.00
2022-09-01T19:36:25.078Z,53.92
2022-09-01T19:38:58.366Z,54.15
2022-09-01T19:41:35.700Z,55.74
2022-09-01T19:44:14.583Z,55.67
2022-09-01T19:46:50.978Z,54.88
2022-09-01T19:49:35.475Z,55.25
2022-09-01T19:52:14.187Z,56.38
2022-09-01T19:54:57.538Z,57.38
2022-09-01T19:57:36.312Z,57.58
2022-09-01T20:00:15.195Z,58.09
2022-09-01T20:02:54.442Z,57.42
2022-09-01T20:05:33.311Z,57.33
2022-09-01T20:08:10.814Z,57.55
2022-09-01T20:11:05.373Z,58.04
2022-09-01T20:14:08.922Z,59.09
2022-09-01T20:16:43.643Z,60.05
2022-09-01T20:19:19.637Z,60.19
2022-09-01T20:21:51.512Z,59.93
2022-09-01T20:24:34.847Z,60.03
2022-09-01T20:27:22.248Z,60.88
2022-09-01T20:30:00.729Z,60.67
2022-09-01T20:32:41.247Z,60.73
2022-09-01T20:35:17.727Z,60.81
2022-09-01T20:37:53.432Z,61.82
2022-09-01T20:40:27.363Z,61.23
2022-09-01T20:43:18.565Z,61.55
2022-09-01T20:45:49.364Z,61.50
2022-09-01T20:48:22.564Z,62.43
2022-09-01T20:50:59.791Z,62.46
2022-09-01T20:54:04.453Z,63.29
2022-09-01T20:56:45.580Z,63.10
2022-09-01T20:59:27.378Z,62.82
2022-09-01T21:02:05.029Z,62.77
2022-09-01T21:04:49.193Z,63.48
2022-09-01T21:07:22.364Z,63.13
2022-09-01T21:10:02.643Z,62.17
2022-09-01T21:12:40.244Z,61.68
2022-09-01T21:15:28.875Z,61.50
2022-09-01T21:18:16.191Z,61.29
2022-09-01T21:21:00.214Z,61.63
2022-09-01T21:23:32.210Z,61.52
2022-09-01T21:26:03.603Z,61.74
2022-09-01T21:28:33.951Z,62.09
2022-09-01T21:31:10.434Z,62.48
2022-09-01T21:33:40.699Z,62.61
2022-09-01T21:36:12.274Z,61.78
2022-09-01T21:38:42.495Z,62.48
2022-09-01T21:41:13.423Z,62.50
2022-09-01T21:43:47.497Z,62.54
2022-09-01T21:46:20.393Z,64.14
2022-09-01T21:48:51.506Z,63.94
2022-09-01T21:51:21.704Z,63.11
2022-09-01T21:53:51.886Z,63.35
2022-09-01T21:56:25.612Z,64.10
2022-09-01T21:58:58.368Z,64.97
2022-09-01T22:01:31.874Z,65.05
2022-09-01T22:04:04.414Z,65.35
2022-09-01T22:06:35.697Z,65.04
2022-09-01T22:09:20.743Z,65.06
2022-09-01T22:11:54.011Z,65.34
2022-09-01T22:14:25.962Z,65.22
2022-09-01T22:17:03.512Z,65.23
2022-09-01T22:19:36.287Z,65.47
2022-09-01T22:22:07.483Z,66.20
2022-09-01T22:24:37.801Z,66.40
2022-09-01T22:27:08.368Z,66.14
2022-09-01T22:29:38.520Z,66.08
2022-09-01T22:32:11.431Z,67.00
2022-09-01T22:34:43.551Z,66.22
2022-09-01T22:37:13.873Z,66.19
2022-09-01T22:39:44.222Z,66.81
2022-09-01T22:42:14.578Z,67.18
2022-09-01T22:44:44.785Z,67.14
2022-09-01T22:47:17.662Z,66.75
2022-09-01T22:49:48.442Z,67.19
2022-09-01T22:52:18.914Z,67.89
2022-09-01T22:54:49.128Z,68.26
2022-09-01T22:57:20.317Z,68.10
2022-09-01T22:59:50.676Z,67.78
2022-09-01T23:02:23.864Z,67.86
2022-09-01T23:04:54.368Z,67.86
2022-09-01T23:07:24.666Z,68.05
2022-09-01T23:09:54.798Z,68.40
2022-09-01T23:12:25.015Z,68.55
2022-09-01T23:14:55.362Z,68.94
2022-09-01T23:17:28.250Z,69.38
2022-09-01T23:19:58.979Z,69.51
2022-09-01T23:22:29.135Z,69.21
2022-09-01T23:24:59.374Z,69.03
2022-09-01T23:27:29.807Z,68.95
2022-09-01T23:30:00.337Z,69.17
2022-09-01T23:32:33.182Z,69.64
2022-09-01T23:35:03.466Z,69.69
2022-09-01T23:37:33.685Z,70.09
2022-09-01T23:40:04.103Z,70.58
2022-09-01T23:42:34.352Z,71.05
2022-09-01T23:45:04.520Z,71.89
2022-09-01T23:47:37.404Z,71.82
2022-09-01T23:50:09.465Z,71.08
2022-09-01T23:52:39.832Z,70.53
2022-09-01T23:55:11.921Z,70.13
2022-09-01T23:57:42.127Z,69.84
